• Join FlightAware (Why Join?)
  • Login
  • US Flag 
Rudolph Flight #1: Arrived! 
02:24AM EST


 

Airport Tracker/Info


-or-


 

Live Flight TrackerFlight Track Log ✈ N382DJ ✈ 28-Apr-2013 ✈ S21 - KUAO

Flight Track Log - Related Links

Times and Time Zones

All times are in EDT time to prevent confusion due to time zone crossing. See the N382DJ flight status page for this flight to view local times or setup timezone preferences in your user account.

Time Position Orientation Groundspeed Altitude Reporting Facility
EDT Latitude Longitude Course Direction KTS MPH feet Rate Location/Type
07:22PM 43.9342 -121.4067 10° North 144 166 6,900  Level Seattle Center
07:23PM 43.9850 -121.3906 13° North 167 192 7,000 540 Climbing Seattle Center
07:24PM 44.0303 -121.3758 13° North 170 196 8,100 1,020 Climbing Seattle Center
07:25PM 44.0708 -121.3622 14° North 156 180 9,100 1,080 Climbing Seattle Center
07:26PM 44.1122 -121.3492 13° North 152 175 10,300 1,200 Climbing Seattle Center
07:27PM 44.1503 -121.3372 13° North 141 162 11,600 1,080 Climbing Seattle Center
07:28PM 44.0958 -121.3552 10° North  Level FlightAware Approximate
07:28PM 44.1897 -121.3247 13° North 141 162 12,500  Level Seattle Center
07:29PM 44.2408 -121.3081 13° North 154 177 13,000 240 Climbing Seattle Center
07:30PM 44.2794 -121.3431 327° Northwest 165 190 13,000  Level Seattle Center
07:31PM 44.3108 -121.3897 313° West 165 190 13,000  Level Seattle Center
07:33PM 44.3406 -121.4328 314° West 155 178 13,000  Level Seattle Center
07:34PM 44.3725 -121.4797 314° West 162 186 13,000  Level Seattle Center
07:35PM 44.4025 -121.5250 313° West 165 190 13,000  Level Seattle Center
07:36PM 44.4328 -121.5686 314° West 160 184 13,000  Level Seattle Center
07:37PM 44.4617 -121.6119 313° West 153 176 13,000  Level Seattle Center
07:38PM 44.4886 -121.6531 313° West 146 168 13,000  Level Seattle Center
07:39PM 44.5169 -121.6944 314° West 146 168 13,000  Level Seattle Center
07:40PM 44.5447 -121.7353 314° West 144 166 13,000  Level Seattle Center
07:41PM 44.5750 -121.7800 314° West 154 177 13,000  Level Seattle Center
07:42PM 44.6014 -121.8211 312° West 145 167 13,000  Level Seattle Center
07:43PM 44.6269 -121.8606 312° West 138 159 13,000  Level Seattle Center
07:44PM 44.6539 -121.8997 314° West 138 159 13,000  Level Seattle Center
07:45PM 44.6800 -121.9394 313° West 135 155 13,100  Climbing Seattle Center
07:46PM 44.7083 -121.9814 314° West 144 166 13,100  Level Seattle Center
07:47PM 44.7406 -122.0306 313° West 143 165 13,100  Level Seattle Center
07:48PM 44.7669 -122.0717 312° West 141 162 13,100 -120 Level Seattle Center
07:48PM 44.7761 -122.0903 305° West 145 167 13,000 -300 Descending Seattle Center
07:49PM 44.7956 -122.1147 318° Northwest 147 169 12,800 -540 Descending Seattle Center
07:49PM 44.8047 -122.1333 305° West 152 175 12,500 -720 Descending Seattle Center
07:50PM 44.8236 -122.1583 317° Northwest 150 173 12,100 -840 Descending Seattle Center
07:50PM 44.8333 -122.1767 307° West 151 174 11,700 -900 Descending Seattle Center
07:51PM 44.8522 -122.2031 315° West 152 175 11,200 -900 Descending Seattle Center
07:51PM 44.8681 -122.2294 310° West 159 183 10,700 -720 Descending Seattle Center
07:52PM 44.8861 -122.2422 333° Northwest 159 183 10,500 -600 Descending Seattle Center
07:52PM 44.9069 -122.2592 330° Northwest 160 184 10,100 -720 Descending Seattle Center
07:53PM 44.9247 -122.2728 332° Northwest 161 185 9,800 -840 Descending Seattle Center
07:53PM 44.9456 -122.2892 331° Northwest 156 180 9,300 -720 Descending Seattle Center
07:54PM 44.9625 -122.3025 331° Northwest 157 181 9,100 -660 Descending Seattle Center
07:54PM 44.9817 -122.3172 331° Northwest 160 184 8,700 -720 Descending Seattle Center
07:55PM 45.0031 -122.3322 334° Northwest 161 185 8,400 -720 Descending Seattle Center
07:55PM 45.0211 -122.3500 325° Northwest 167 192 8,000 -720 Descending Seattle Center
07:56PM 45.0428 -122.3642 335° Northwest 164 189 7,700 -720 Descending Seattle Center
07:56PM 45.0622 -122.3819 327° Northwest 169 194 7,300 -720 Descending Seattle Center
07:57PM 45.0833 -122.3983 331° Northwest 168 193 7,000 -720 Descending Seattle Center
07:57PM 45.1036 -122.4142 331° Northwest 174 200 6,600 -720 Descending Seattle Center
07:58PM 45.1253 -122.4336 328° Northwest 172 198 6,300 -600 Descending Seattle Center
07:58PM 45.1461 -122.4519 328° Northwest 175 201 6,000 -420 Descending Seattle Center
07:59PM 45.1667 -122.4692 329° Northwest 174 200 5,900 -120 Descending Seattle Center
07:59PM 45.1858 -122.4878 326° Northwest 155 178 5,900 -420 Level Seattle Center
08:00PM 45.2042 -122.4992 336° Northwest 164 189 5,500 -840 Descending Seattle Center
08:00PM 45.2267 -122.5172 331° Northwest 162 186 5,100 -900 Descending Seattle Center
08:01PM 45.2514 -122.5350 333° Northwest 161 185 4,600 -720 Descending Seattle Center
08:01PM 45.2653 -122.5475 328° Northwest 165 190 4,400 -720 Descending Seattle Center
08:02PM 45.2922 -122.5681 332° Northwest 165 190 3,900 -840 Descending Seattle Center
08:02PM 45.3064 -122.5797 330° Northwest 166 191 3,600 -840 Descending Seattle Center
08:03PM 45.3325 -122.5981 334° Northwest 166 191 3,100 -600 Descending Seattle Center
08:03PM 45.3486 -122.6056 342° North 168 193 3,000 -240 Descending Seattle Center
08:04PM 45.3750 -122.6200 339° North 165 190 2,900  Descending Seattle Center
08:04PM 45.3869 -122.6239 347° North 138 159 3,000  Climbing Seattle Center
08:05PM 45.4094 -122.6358 340° North 144 166 2,900 -120 Descending Seattle Center
08:05PM 45.4214 -122.6436 335° Northwest 136 157 2,900  Level Seattle Center
08:06PM 45.4311 -122.6703 297° West 140 161 2,900  Level Seattle Center
08:06PM 45.4350 -122.6903 285° West 135 155 2,900  Level Seattle Center
08:07PM 45.4378 -122.7175 278° West 125 144 2,900 -120 Level Seattle Center
08:07PM 45.4194 -122.7306 207° Southwest 142 163 2,800 -420 Descending Seattle Center
08:08PM 45.4028 -122.7439 209° Southwest 139 160 2,500 -480 Descending Seattle Center